Time;durP1;ratioP1;P1;durP2;ratioP2;P2;SDS_P1;SDS_P2;PMS_P1;PMS_P2;Temp;Humidity;BMP_temperature;BMP_pressure;BME280_temperature;BME280_humidity;BME280_pressure;Samples;Min_cycle;Max_cycle;Signal;HPM_P1;HPM_P2
2022/03/21 00:00:33;;;;;;;14.88;7.38;;;;;;;19.27;39.46;102314.16;5052742;28;20360;-74
2022/03/21 00:02:59;;;;;;;16.73;7.45;;;;;;;19.26;39.60;102315.31;5053030;28;20036;-74
2022/03/21 00:05:25;;;;;;;12.60;6.38;;;;;;;19.39;39.27;102314.25;5052638;28;20029;-74
2022/03/21 00:07:51;;;;;;;14.00;7.85;;;;;;;19.38;39.44;102307.91;5052685;28;20054;-74
2022/03/21 00:10:17;;;;;;;16.42;7.00;;;;;;;19.41;39.40;102315.53;5052460;28;20025;-75
2022/03/21 00:12:42;;;;;;;12.10;6.88;;;;;;;19.38;39.39;102313.47;5052645;28;20032;-73
2022/03/21 00:15:12;;;;;;;16.13;6.45;;;;;;;19.41;39.29;102309.19;5052507;28;20028;-74
2022/03/21 00:17:40;;;;;;;17.20;7.68;;;;;;;19.41;39.29;102311.97;5052512;28;20017;-74
2022/03/21 00:20:10;;;;;;;18.23;6.68;;;;;;;19.36;39.51;102314.94;5052332;28;20025;-74
2022/03/21 00:22:37;;;;;;;;;;;;;;;19.26;39.53;102316.13;5052991;28;20105;-73
2022/03/21 00:25:04;;;;;;;13.15;7.03;;;;;;;19.39;39.49;102305.94;5052270;28;19944;-74
2022/03/21 00:27:29;;;;;;;18.38;8.25;;;;;;;19.41;39.31;102306.41;5052320;28;20104;-74
2022/03/21 00:29:55;;;;;;;17.60;7.20;;;;;;;19.47;38.93;102307.84;5052458;28;20112;-75
2022/03/21 00:32:21;;;;;;;13.55;6.97;;;;;;;19.50;39.31;102314.72;5054133;28;20463;-74
2022/03/21 00:34:46;;;;;;;20.33;6.80;;;;;;;19.50;39.22;102311.94;5056362;28;20418;-74
2022/03/21 00:37:12;;;;;;;15.10;7.13;;;;;;;19.40;39.48;102316.69;5056335;28;20557;-74
2022/03/21 00:39:41;;;;;;;10.55;6.60;;;;;;;19.47;39.41;102315.38;5056260;28;20032;-74
2022/03/21 00:42:10;;;;;;;14.88;7.20;;;;;;;19.54;39.23;102307.31;5056361;28;20021;-74
2022/03/21 00:44:39;;;;;;;16.65;8.80;;;;;;;19.52;39.23;102304.09;5056063;28;20039;-75
2022/03/21 00:47:04;;;;;;;12.35;7.75;;;;;;;19.56;39.20;102313.34;5056398;28;20025;-81
2022/03/21 00:49:30;;;;;;;16.52;8.48;;;;;;;19.58;39.31;102306.38;5056123;28;20086;-74
2022/03/21 00:51:56;;;;;;;18.42;7.82;;;;;;;19.50;39.30;102300.84;5056223;28;20060;-91
2022/03/21 00:54:21;;;;;;;15.15;8.35;;;;;;;19.56;39.28;102302.25;5056070;28;20041;-74
2022/03/21 00:56:47;;;;;;;22.17;9.18;;;;;;;19.55;39.12;102293.13;5056138;28;20036;-75
2022/03/21 00:59:12;;;;;;;14.35;8.30;;;;;;;19.48;39.46;102308.66;5055986;28;20040;-74
2022/03/21 01:01:38;;;;;;;15.43;7.85;;;;;;;19.54;39.33;102294.28;5056033;28;20025;-74
2022/03/21 01:04:04;;;;;;;17.17;8.35;;;;;;;19.55;39.47;102295.09;5056046;28;20064;-74
2022/03/21 01:06:30;;;;;;;17.42;8.32;;;;;;;19.50;39.50;102298.06;5055903;28;20578;-74
2022/03/21 01:08:55;;;;;;;13.80;7.20;;;;;;;19.53;39.33;102289.88;5055826;28;20025;-74
2022/03/21 01:11:22;;;;;;;13.68;7.97;;;;;;;19.56;39.55;102291.97;5055709;28;20064;-91
2022/03/21 01:13:49;;;;;;;18.95;8.55;;;;;;;19.50;39.58;102296.13;5056024;28;20371;-74
2022/03/21 01:16:15;;;;;;;16.83;7.57;;;;;;;19.52;39.54;102288.28;5055549;28;20021;-74
2022/03/21 01:18:44;;;;;;;15.20;8.35;;;;;;;19.54;39.44;102299.00;5055585;28;20368;-75
2022/03/21 01:21:13;;;;;;;15.88;8.45;;;;;;;19.51;39.48;102296.94;5055993;28;20032;-75
2022/03/21 01:23:39;;;;;;;12.25;7.80;;;;;;;19.49;39.54;102304.75;5055568;28;20025;-74
2022/03/21 01:26:05;;;;;;;14.30;8.45;;;;;;;19.50;39.43;102304.44;5055451;28;20127;-93
2022/03/21 01:28:31;;;;;;;21.42;8.32;;;;;;;19.52;39.38;102302.13;5055287;28;20045;-74
2022/03/21 01:30:56;;;;;;;14.35;7.47;;;;;;;19.46;39.54;102303.47;5055474;28;20036;-74
2022/03/21 01:33:22;;;;;;;20.63;8.00;;;;;;;19.46;39.48;102302.66;5055359;28;20021;-74
2022/03/21 01:35:48;;;;;;;19.38;7.88;;;;;;;19.51;39.32;102310.78;5055347;28;20028;-74
2022/03/21 01:38:13;;;;;;;13.80;8.30;;;;;;;19.48;39.38;102300.34;5055257;28;20032;-75
2022/03/21 01:40:39;;;;;;;16.45;7.70;;;;;;;19.46;39.37;102297.91;5055211;28;20033;-74
2022/03/21 01:43:11;;;;;;;16.85;8.40;;;;;;;19.48;39.37;102294.81;5054982;28;20040;-75
2022/03/21 01:45:37;;;;;;;18.20;8.75;;;;;;;19.49;39.38;102296.44;5054999;28;20067;-74
2022/03/21 01:48:03;;;;;;;16.45;7.03;;;;;;;19.51;39.25;102297.72;5055091;28;20053;-74
2022/03/21 01:50:29;;;;;;;13.30;6.90;;;;;;;19.56;39.40;102293.94;5055213;28;20032;-74
2022/03/21 01:55:43;;;;;;;17.77;8.20;;;;;;;19.63;38.84;102285.94;5055282;28;20429;-75
2022/03/21 01:55:44;;;;;;;13.20;6.78;;;;;;;19.59;39.07;102282.22;5054433;28;20429;-74
2022/03/21 01:58:13;;;;;;;12.32;6.93;;;;;;;19.58;39.00;102284.19;5054816;28;20441;-74
2022/03/21 02:00:41;;;;;;;15.68;6.60;;;;;;;19.60;38.99;102290.19;5054984;28;20025;-74
2022/03/21 02:03:07;;;;;;;12.38;6.30;;;;;;;19.57;38.82;102279.78;5054746;28;20100;-74
2022/03/21 02:05:37;;;;;;;17.33;6.63;;;;;;;19.59;38.81;102279.44;5054636;28;20104;-74
2022/03/21 02:08:03;;;;;;;13.85;6.68;;;;;;;19.57;38.85;102281.72;5054863;28;20021;-74
2022/03/21 02:10:30;;;;;;;9.65;6.18;;;;;;;19.56;38.68;102280.88;5054638;28;20024;-74
2022/03/21 02:12:56;;;;;;;13.98;6.45;;;;;;;19.58;38.53;102286.16;5055199;28;20029;-74
2022/03/21 02:15:21;;;;;;;12.57;6.30;;;;;;;19.57;38.59;102278.94;5054496;28;20517;-74
2022/03/21 02:17:52;;;;;;;15.88;6.53;;;;;;;19.60;38.60;102286.63;5054592;28;20445;-74
2022/03/21 02:20:18;;;;;;;15.45;6.20;;;;;;;19.60;38.43;102276.34;5054572;28;20053;-74
2022/03/21 02:23:22;;;;;;;13.63;5.97;;;;;;;19.53;38.17;102273.25;5054491;28;20486;-74
2022/03/21 02:25:49;;;;;;;16.80;5.70;;;;;;;19.53;38.33;102267.72;5054321;28;20029;-74
2022/03/21 02:28:16;;;;;;;16.35;5.65;;;;;;;19.52;38.28;102263.31;5054101;28;20052;-75
2022/03/21 02:30:46;;;;;;;16.92;7.03;;;;;;;19.68;37.60;102261.59;5054376;28;20043;-75
2022/03/21 02:33:13;;;;;;;18.70;6.20;;;;;;;19.79;37.44;102261.97;5054266;28;20103;-75
2022/03/21 02:35:43;;;;;;;17.75;7.28;;;;;;;19.81;37.33;102270.78;5054095;28;20033;-74
2022/03/21 02:38:10;;;;;;;17.02;7.40;;;;;;;19.83;37.44;102268.47;5054026;28;20074;-74
2022/03/21 02:40:36;;;;;;;13.85;7.22;;;;;;;19.87;37.41;102272.19;5054171;28;20483;-75
2022/03/21 02:43:02;;;;;;;12.65;7.43;;;;;;;19.84;37.27;102261.78;5054052;28;20021;-73
2022/03/21 02:45:28;;;;;;;17.77;8.23;;;;;;;19.79;37.54;102270.31;5053847;28;20033;-74
2022/03/21 02:47:53;;;;;;;16.35;7.95;;;;;;;19.76;37.70;102259.91;5054040;28;20035;-92
2022/03/21 02:50:46;;;;;;;14.40;7.38;;;;;;;19.74;37.75;102255.84;5054133;28;20074;-74
2022/03/21 02:53:12;;;;;;;18.55;9.00;;;;;;;19.78;37.60;102259.56;5036149;28;20415;-91
2022/03/21 02:55:41;;;;;;;15.70;8.95;;;;;;;19.86;37.42;102259.47;5053321;28;20067;-75
2022/03/21 02:58:06;;;;;;;17.75;8.95;;;;;;;19.82;37.60;102249.41;5054026;28;20075;-74
2022/03/21 03:00:32;;;;;;;16.00;8.18;;;;;;;19.82;37.60;102250.22;5053653;28;20425;-74
2022/03/21 03:02:57;;;;;;;18.58;9.02;;;;;;;19.80;37.65;102248.91;5053647;28;20028;-91
2022/03/21 03:05:23;;;;;;;12.23;8.40;;;;;;;19.86;37.54;102244.78;5053526;28;20029;-74
2022/03/21 03:07:49;;;;;;;14.18;8.75;;;;;;;19.86;37.44;102240.06;5053692;28;20390;-74
2022/03/21 03:10:14;;;;;;;19.10;9.55;;;;;;;19.85;37.50;102235.66;5053461;28;20501;-74
2022/03/21 03:12:41;;;;;;;17.33;8.75;;;;;;;19.76;37.76;102240.47;5053351;28;20032;-74
2022/03/21 03:15:07;;;;;;;14.43;10.02;;;;;;;19.86;37.65;102239.25;5053451;28;20025;-75
2022/03/21 03:17:32;;;;;;;25.10;10.70;;;;;;;19.79;37.77;102238.97;5053390;28;20056;-74
2022/03/21 03:19:58;;;;;;;15.73;9.48;;;;;;;19.84;37.57;102231.28;5053460;28;20064;-74
2022/03/21 03:22:25;;;;;;;22.38;10.07;;;;;;;19.80;37.87;102232.28;5053217;28;20379;-74
2022/03/21 03:24:52;;;;;;;19.13;10.45;;;;;;;19.68;38.07;102228.31;5053604;28;20021;-94
2022/03/21 03:27:17;;;;;;;20.15;10.93;;;;;;;19.61;38.30;102225.28;5053665;28;20057;-75
2022/03/21 03:29:43;;;;;;;18.95;11.20;;;;;;;19.62;38.26;102223.31;5053572;28;20104;-74
2022/03/21 03:32:09;;;;;;;19.77;11.27;;;;;;;19.65;38.18;102219.88;5053841;28;20429;-93
2022/03/21 03:34:35;;;;;;;20.67;10.27;;;;;;;19.79;37.94;102222.34;5053455;28;20021;-74
2022/03/21 03:37:01;;;;;;;18.33;10.57;;;;;;;19.81;37.94;102218.09;5053101;28;20391;-74
2022/03/21 03:39:28;;;;;;;24.20;11.65;;;;;;;19.85;38.02;102221.00;5053185;28;20482;-75
2022/03/21 03:41:54;;;;;;;19.38;9.85;;;;;;;19.87;37.94;102221.44;5053008;28;20032;-94
2022/03/21 03:44:20;;;;;;;18.80;10.90;;;;;;;19.81;38.03;102220.06;5052937;28;20386;-80
2022/03/21 03:46:46;;;;;;;16.55;10.05;;;;;;;19.79;38.16;102217.59;5052925;28;20025;-74
2022/03/21 03:49:12;;;;;;;26.02;12.52;;;;;;;19.57;38.36;102223.50;5053184;28;20028;-74
2022/03/21 03:51:37;;;;;;;20.50;8.88;;;;;;;19.38;38.72;102213.69;5052860;28;20025;-74
2022/03/21 03:54:03;;;;;;;17.27;8.38;;;;;;;19.40;38.67;102207.78;5052905;28;20056;-95
2022/03/21 03:56:29;;;;;;;19.10;9.82;;;;;;;19.43;38.45;102204.34;5052830;28;20029;-93
2022/03/21 03:58:54;;;;;;;17.98;9.20;;;;;;;19.38;38.58;102219.22;5052900;28;20024;-74
2022/03/21 04:01:20;;;;;;;16.63;9.25;;;;;;;19.59;38.06;102212.91;5034938;28;20056;-74
2022/03/21 04:03:46;;;;;;;17.25;8.60;;;;;;;19.45;38.33;102218.69;5052633;28;20036;-74
2022/03/21 04:06:23;;;;;;;19.60;9.15;;;;;;;19.39;38.20;102211.72;5052685;28;20029;-74
2022/03/21 04:08:51;;;;;;;18.42;9.20;;;;;;;19.27;38.43;102212.47;5052615;28;20112;-74
2022/03/21 04:11:18;;;;;;;19.70;9.63;;;;;;;19.54;37.88;102213.06;5052627;28;20410;-75
2022/03/21 04:13:44;;;;;;;16.52;8.68;;;;;;;19.68;37.47;102210.88;5034758;28;20390;-74
2022/03/21 04:16:10;;;;;;;15.23;7.85;;;;;;;19.62;37.27;102210.25;5052583;28;20083;-93
2022/03/21 04:18:37;;;;;;;15.70;7.78;;;;;;;19.40;37.61;102221.66;5052464;28;20036;-75
2022/03/21 04:21:03;;;;;;;14.65;7.93;;;;;;;19.36;37.71;102212.41;5052471;28;20025;-74
2022/03/21 04:23:29;;;;;;;17.27;8.55;;;;;;;19.23;37.85;102219.81;5052537;28;20025;-75
2022/03/21 04:25:55;;;;;;;13.68;7.80;;;;;;;19.31;37.62;102224.47;5052687;28;20040;-74
2022/03/21 04:28:20;;;;;;;17.15;8.82;;;;;;;19.21;37.54;102221.31;5052302;28;20490;-92
2022/03/21 04:30:46;;;;;;;16.65;8.02;;;;;;;19.32;37.18;102225.28;5051963;28;20387;-75
2022/03/21 04:33:13;;;;;;;16.42;8.13;;;;;;;19.28;37.22;102222.41;5050263;28;20403;-75
2022/03/21 04:35:41;;;;;;;12.85;7.10;;;;;;;19.29;37.07;102231.53;5052186;28;20040;-74
2022/03/21 04:38:14;;;;;;;13.45;6.85;;;;;;;19.28;37.21;102235.44;5052225;28;20120;-75
2022/03/21 04:40:42;;;;;;;18.48;7.78;;;;;;;19.27;37.15;102240.19;5052599;28;20029;-74
2022/03/21 04:43:09;;;;;;;15.85;7.68;;;;;;;19.32;37.08;102236.38;5052346;28;20499;-75
2022/03/21 04:45:35;;;;;;;13.93;7.90;;;;;;;19.40;36.91;102249.38;5052078;28;20491;-75
2022/03/21 04:48:01;;;;;;;16.63;8.68;;;;;;;19.43;36.95;102239.59;5034560;28;20025;-81
2022/03/21 04:50:27;;;;;;;17.13;9.55;;;;;;;19.45;37.13;102245.59;5052113;28;20025;-75
2022/03/21 04:52:52;;;;;;;12.35;9.20;;;;;;;19.47;37.01;102248.84;5052109;28;20032;-74
2022/03/21 04:55:18;;;;;;;19.92;10.32;;;;;;;19.41;37.28;102256.53;5052115;28;20036;-74
2022/03/21 04:57:44;;;;;;;18.20;11.48;;;;;;;19.40;37.34;102244.63;5052056;28;20024;-93
2022/03/21 05:00:10;;;;;;;16.70;10.80;;;;;;;19.41;37.41;102254.56;5052009;28;20476;-75
2022/03/21 05:02:36;;;;;;;19.70;11.80;;;;;;;19.47;37.29;102262.69;5052039;28;20029;-74
2022/03/21 05:05:02;;;;;;;18.95;11.85;;;;;;;19.51;37.32;102261.69;5051897;28;20132;-74
2022/03/21 05:07:29;;;;;;;22.25;13.35;;;;;;;19.46;37.34;102258.31;5051997;28;20025;-74
2022/03/21 05:09:55;;;;;;;19.30;13.60;;;;;;;19.43;37.61;102268.13;5051969;28;20029;-74
2022/03/21 05:12:20;;;;;;;23.30;13.25;;;;;;;19.31;37.78;102265.25;5051910;28;20576;-75
2022/03/21 05:14:47;;;;;;;19.92;14.20;;;;;;;19.21;38.02;102266.44;5052052;28;20029;-78
2022/03/21 05:17:12;;;;;;;25.02;14.98;;;;;;;19.19;38.06;102260.41;5051866;28;20037;-75
2022/03/21 05:19:39;;;;;;;24.58;14.32;;;;;;;19.27;37.84;102242.94;5055441;28;20356;-75
2022/03/21 05:22:05;;;;;;;20.25;14.20;;;;;;;19.29;37.75;102254.50;5055650;28;20458;-74
2022/03/21 05:32:44;;;;;;;20.88;15.98;;;;;;;19.28;37.94;102275.06;5055588;28;20110;-75
2022/03/21 05:37:53;;;;;;;28.55;16.38;;;;;;;19.32;37.70;102273.22;5055819;28;20039;-75
2022/03/21 05:40:32;;;;;;;24.52;15.10;;;;;;;19.33;37.79;102276.78;5055235;28;20029;-74
2022/03/21 05:42:57;;;;;;;27.40;15.98;;;;;;;19.25;37.82;102272.13;5055207;28;20025;-74
2022/03/21 05:45:23;;;;;;;24.17;15.65;;;;;;;19.29;37.82;102268.34;5055143;28;20032;-75
2022/03/21 05:50:37;;;;;;;28.92;17.42;;;;;;;19.13;38.30;102278.41;5055099;28;20116;-91
2022/03/21 05:53:04;;;;;;;25.70;17.77;;;;;;;18.99;38.60;102272.28;5055027;28;20033;-74
2022/03/21 05:55:31;;;;;;;25.60;17.50;;;;;;;19.04;38.39;102284.00;5054984;28;20422;-74
2022/03/21 05:57:59;;;;;;;24.08;16.65;;;;;;;19.03;38.53;102278.75;5054802;28;20438;-75
2022/03/21 06:00:25;;;;;;;26.15;16.80;;;;;;;19.01;38.33;102287.41;5055079;28;20040;-75
2022/03/21 06:02:52;;;;;;;32.88;19.15;;;;;;;19.06;38.55;102283.66;5054835;28;20036;-74
2022/03/21 06:05:19;;;;;;;32.78;20.85;;;;;;;18.98;38.41;102276.19;5054902;28;20033;-76
2022/03/21 06:07:46;;;;;;;37.80;19.25;;;;;;;18.97;38.62;102277.34;5054654;28;20032;-74
2022/03/21 06:10:12;;;;;;;25.88;17.95;;;;;;;19.25;38.01;102274.91;5054718;28;20546;-75
2022/03/21 06:12:41;;;;;;;27.08;18.70;;;;;;;19.09;38.30;102280.19;5054776;28;20032;-74
2022/03/21 06:15:08;;;;;;;32.72;18.83;;;;;;;19.13;37.99;102276.44;5054547;28;20383;-75
2022/03/21 06:17:41;;;;;;;29.90;18.95;;;;;;;18.94;38.51;102278.00;5054506;28;20032;-74
2022/03/21 06:20:16;;;;;;;27.55;20.15;;;;;;;19.05;38.23;102276.50;5054405;28;20033;-74
2022/03/21 06:22:42;;;;;;;30.23;19.35;;;;;;;19.12;38.14;102285.09;5054502;28;20025;-75
2022/03/21 06:25:10;;;;;;;29.55;18.58;;;;;;;19.10;38.09;102284.59;5054365;28;20102;-74
2022/03/21 06:27:39;;;;;;;29.17;19.45;;;;;;;18.99;38.42;102298.00;5054187;28;20048;-79
2022/03/21 06:30:07;;;;;;;27.20;18.88;;;;;;;19.05;38.11;102282.03;5053264;28;20040;-75
2022/03/21 06:32:34;;;;;;;31.98;20.88;;;;;;;19.02;38.16;102289.03;5054235;28;20084;-77
2022/03/21 06:35:01;;;;;;;32.85;19.65;;;;;;;19.00;38.48;102288.56;5054159;28;20519;-74
2022/03/21 06:37:27;;;;;;;29.15;20.65;;;;;;;19.04;38.26;102292.28;5054412;28;20021;-89
2022/03/21 06:39:53;;;;;;;31.73;20.63;;;;;;;19.35;37.64;102280.06;5054263;28;20491;-75
2022/03/21 06:42:21;;;;;;;26.67;19.40;;;;;;;19.32;37.57;102291.81;5054220;28;20032;-95
2022/03/21 06:44:50;;;;;;;29.45;22.65;;;;;;;19.26;37.69;102285.63;5036258;28;20033;-75
2022/03/21 06:47:19;;;;;;;42.30;21.42;;;;;;;19.30;37.41;102292.16;5054357;28;20523;-76
2022/03/21 06:49:45;;;;;;;32.75;21.25;;;;;;;19.22;37.48;102293.00;5053894;28;20487;-75
2022/03/21 06:52:12;;;;;;;28.75;20.60;;;;;;;19.39;37.17;102298.44;5053751;28;20029;-75
2022/03/21 06:54:38;;;;;;;30.30;19.77;;;;;;;19.40;37.07;102297.28;5053799;28;20514;-75
2022/03/21 06:57:05;;;;;;;37.67;22.42;;;;;;;19.35;37.02;102289.19;5053784;28;20017;-74
2022/03/21 06:59:32;;;;;;;28.27;19.73;;;;;;;19.28;37.12;102296.41;5053969;28;20028;-74
2022/03/21 07:01:58;;;;;;;45.85;22.63;;;;;;;19.29;37.05;102290.53;5053704;28;20481;-75
2022/03/21 07:04:25;;;;;;;25.75;18.95;;;;;;;19.17;37.19;102295.97;5053541;28;20479;-76
2022/03/21 07:06:51;;;;;;;32.20;21.52;;;;;;;19.31;36.51;102295.72;5035776;28;20171;-75
2022/03/21 07:09:17;;;;;;;31.30;19.92;;;;;;;19.43;36.67;102300.56;5053621;28;20483;-75
2022/03/21 07:11:43;;;;;;;31.55;20.55;;;;;;;19.33;36.90;102305.31;5053619;28;20061;-75
2022/03/21 07:14:08;;;;;;;28.48;19.48;;;;;;;19.43;36.59;102298.59;5053642;28;20071;-75
2022/03/21 07:16:34;;;;;;;31.95;19.00;;;;;;;19.43;36.54;102298.59;5053322;28;20100;-75
2022/03/21 07:19:00;;;;;;;29.00;17.92;;;;;;;19.18;37.02;102302.31;5053327;28;20183;-80
2022/03/21 07:21:26;;;;;;;34.15;20.02;;;;;;;19.31;36.85;102299.31;5053629;28;20020;-74
2022/03/21 07:23:52;;;;;;;31.83;18.20;;;;;;;19.18;37.19;102297.59;5052898;28;20483;-74
2022/03/21 07:26:17;;;;;;;29.90;19.98;;;;;;;19.25;37.05;102297.06;5053099;28;20112;-74
2022/03/21 07:28:43;;;;;;;30.27;19.00;;;;;;;19.14;37.15;102299.41;5034966;28;20506;-74
2022/03/21 07:31:13;;;;;;;29.95;18.42;;;;;;;19.12;37.16;102299.75;5053170;28;20029;-82
2022/03/21 07:33:40;;;;;;;23.45;17.45;;;;;;;19.04;37.40;102308.91;5035195;28;20128;-74
2022/03/21 07:36:06;;;;;;;28.83;17.08;;;;;;;18.96;37.61;102311.69;5052992;28;20163;-75
2022/03/21 07:38:31;;;;;;;29.65;17.98;;;;;;;19.13;37.27;102323.53;5053031;28;20071;-74
2022/03/21 07:40:59;;;;;;;30.48;18.52;;;;;;;19.16;37.09;102324.81;5052843;28;20471;-75
2022/03/21 07:43:24;;;;;;;27.45;16.70;;;;;;;19.23;37.13;102322.34;5053020;28;20529;-74
2022/03/21 07:48:34;;;;;;;30.50;17.17;;;;;;;19.01;37.38;102325.38;5053177;28;20028;-76
2022/03/21 07:51:00;;;;;;;31.65;16.83;;;;;;;19.16;37.38;102319.28;5035415;28;20025;-76
2022/03/21 07:53:26;;;;;;;30.38;17.20;;;;;;;19.28;37.20;102332.44;5053619;28;20021;-75
2022/03/21 07:55:52;;;;;;;26.38;16.63;;;;;;;19.23;37.29;102336.19;5053143;28;20032;-94
2022/03/21 07:58:17;;;;;;;30.95;15.77;;;;;;;19.19;37.52;102334.41;5052858;28;20031;-75
2022/03/21 08:00:43;;;;;;;29.58;16.08;;;;;;;19.35;37.12;102333.53;5052722;28;20040;-75
2022/03/21 08:03:14;;;;;;;46.80;20.23;;;;;;;19.51;36.96;102338.50;5053469;28;20025;-92
2022/03/21 08:05:40;;;;;;;40.70;18.08;;;;;;;19.58;36.87;102344.38;5035193;28;20086;-76
2022/03/21 08:08:09;;;;;;;39.83;19.65;;;;;;;19.64;36.73;102340.22;5052513;28;20071;-77
2022/03/21 08:10:35;;;;;;;29.00;15.40;;;;;;;19.72;36.49;102342.13;5053836;28;20035;-81
2022/03/21 08:13:01;;;;;;;42.42;18.83;;;;;;;19.71;36.64;102343.28;5053537;28;20468;-77
2022/03/21 08:15:28;;;;;;;24.25;16.55;;;;;;;19.87;36.27;102338.75;5052723;28;20488;-81
2022/03/21 08:17:57;;;;;;;39.17;18.15;;;;;;;19.92;36.17;102344.13;5035297;28;20396;-75
2022/03/21 08:20:26;;;;;;;22.27;14.73;;;;;;;19.91;36.13;102339.72;5053149;28;20029;-90
2022/03/21 08:22:52;;;;;;;58.15;21.77;;;;;;;20.08;35.96;102341.53;5052459;28;20029;-76
2022/03/21 08:25:20;;;;;;;28.40;15.27;;;;;;;20.32;35.60;102349.16;5051675;28;20025;-76
2022/03/21 08:27:47;;;;;;;30.75;17.08;;;;;;;20.43;35.46;102341.25;5052312;28;20052;-76
2022/03/21 08:30:15;;;;;;;44.15;19.80;;;;;;;20.32;35.48;102335.28;5052689;28;20564;-89
2022/03/21 08:32:42;;;;;;;27.15;15.82;;;;;;;20.40;35.18;102328.03;5052618;28;20075;-76
2022/03/21 08:35:08;;;;;;;20.88;13.65;;;;;;;20.57;34.98;102341.78;5033528;28;20120;-76
2022/03/21 08:37:34;;;;;;;32.03;15.32;;;;;;;20.64;34.92;102330.94;5051245;28;20067;-76
2022/03/21 08:39:59;;;;;;;33.13;16.42;;;;;;;20.79;34.76;102348.91;5050880;28;20052;-76
2022/03/21 08:42:25;;;;;;;37.35;15.15;;;;;;;20.60;34.95;102335.53;5050676;28;20044;-76
2022/03/21 08:44:51;;;;;;;32.58;16.02;;;;;;;20.79;34.73;102340.56;5051841;28;20435;-86
2022/03/21 08:47:16;;;;;;;29.00;14.93;;;;;;;20.75;34.68;102342.41;5052497;28;20032;-81
2022/03/21 08:49:42;;;;;;;29.95;15.52;;;;;;;20.69;34.80;102343.78;5035183;28;20083;-89
2022/03/21 08:52:08;;;;;;;31.63;15.30;;;;;;;20.70;34.48;102337.88;5052529;28;20046;-76
2022/03/21 08:54:33;;;;;;;21.75;14.20;;;;;;;20.86;34.27;102331.69;5055343;28;20025;-76
2022/03/21 08:56:59;;;;;;;26.23;13.88;;;;;;;20.88;34.02;102338.50;5055793;28;20029;-77
2022/03/21 08:59:25;;;;;;;21.60;13.73;;;;;;;20.82;34.00;102345.44;5055615;28;20478;-75
2022/03/21 09:01:52;;;;;;;23.38;13.95;;;;;;;20.93;33.61;102337.44;5055633;28;20028;-76
2022/03/21 09:04:17;;;;;;;23.13;12.50;;;;;;;20.74;33.93;102326.91;5055445;28;20025;-77
2022/03/21 09:06:43;;;;;;;16.02;12.38;;;;;;;20.80;33.62;102339.41;5055339;28;20475;-77
2022/03/21 09:09:09;;;;;;;32.50;16.73;;;;;;;20.88;33.67;102332.94;5055627;28;20442;-78
2022/03/21 09:11:37;;;;;;;22.38;11.80;;;;;;;20.86;33.37;102340.81;5037825;28;20043;-85
2022/03/21 09:14:03;;;;;;;32.72;14.30;;;;;;;20.88;33.48;102341.28;5055177;28;20032;-77
2022/03/21 09:16:29;;;;;;;18.35;13.45;;;;;;;21.15;33.36;102337.00;5055309;28;20389;-77
2022/03/21 09:18:54;;;;;;;31.30;15.13;;;;;;;21.07;33.43;102340.72;5056479;28;20093;-90
2022/03/21 09:21:20;;;;;;;61.22;20.05;;;;;;;21.18;33.15;102338.31;5039062;28;20032;-77
2022/03/21 09:23:46;;;;;;;34.38;15.98;;;;;;;21.29;33.04;102328.38;5055366;28;20467;-80
2022/03/21 09:26:11;;;;;;;23.35;13.13;;;;;;;21.36;32.77;102328.59;5055509;28;20055;-76
2022/03/21 09:28:43;;;;;;;21.35;12.75;;;;;;;21.11;32.98;102333.31;5055534;28;20112;-81
2022/03/21 09:31:09;;;;;;;31.88;14.90;;;;;;;21.21;32.75;102338.41;5055090;28;20021;-77
2022/03/21 09:33:36;;;;;;;21.15;13.68;;;;;;;21.36;32.21;102327.78;5037048;28;20040;-80
2022/03/21 09:36:03;;;;;;;24.88;13.52;;;;;;;21.33;32.60;102334.88;5054756;28;20464;-76
2022/03/21 09:38:29;;;;;;;21.90;13.95;;;;;;;21.32;32.25;102333.25;5037295;28;20021;-76
2022/03/21 09:40:55;;;;;;;31.65;15.35;;;;;;;21.37;32.39;102341.34;5054808;28;20032;-76
2022/03/21 09:43:23;;;;;;;24.75;13.55;;;;;;;21.27;32.46;102352.91;5054768;28;20463;-76
2022/03/21 09:45:51;;;;;;;28.75;15.43;;;;;;;21.15;32.66;102344.53;5052358;28;20124;-76
2022/03/21 09:48:19;;;;;;;32.17;14.50;;;;;;;21.31;32.22;102343.56;5055147;28;20427;-88
2022/03/21 09:50:46;;;;;;;22.40;13.70;;;;;;;21.51;32.32;102343.78;5056178;28;20120;-80
2022/03/21 09:53:16;;;;;;;21.88;13.75;;;;;;;21.44;31.75;102347.13;5056004;28;20054;-88
2022/03/21 09:55:43;;;;;;;22.73;14.15;;;;;;;21.51;32.14;102352.09;5055246;28;20167;-87
2022/03/21 09:58:12;;;;;;;29.55;16.70;;;;;;;21.57;32.11;102345.97;5052462;28;20029;-87
2022/03/21 10:00:43;;;;;;;22.20;12.68;;;;;;;21.73;31.72;102342.47;5055907;28;20033;-76
2022/03/21 10:03:09;;;;;;;20.25;14.68;;;;;;;21.67;31.77;102343.88;5052965;28;20422;-88
2022/03/21 10:05:43;;;;;;;22.83;13.85;;;;;;;21.63;31.59;102349.31;5055909;28;20047;-90
2022/03/21 10:08:29;;;;;;;22.70;13.90;;;;;;;21.79;31.37;102346.63;5056300;28;20112;-89
2022/03/21 10:11:05;;;;;;;24.70;13.40;;;;;;;21.78;31.38;102339.47;5056008;28;20031;-83
2022/03/21 10:13:35;;;;;;;25.10;13.27;;;;;;;21.71;31.38;102331.69;5056150;28;20071;-88
2022/03/21 10:16:20;;;;;;;20.55;12.25;;;;;;;21.73;31.55;102342.47;5055862;28;20082;-88
2022/03/21 10:18:52;;;;;;;20.08;12.88;;;;;;;21.62;31.66;102344.13;5055741;28;20029;-88
2022/03/21 10:21:18;;;;;;;20.60;14.05;;;;;;;21.63;31.76;102337.41;5055388;28;20413;-88
2022/03/21 10:23:46;;;;;;;32.03;13.00;;;;;;;21.69;31.79;102335.97;5054569;28;20016;-87
2022/03/21 10:26:27;;;;;;;29.65;13.15;;;;;;;21.36;32.17;102336.13;5055436;28;20029;-83
2022/03/21 10:28:54;;;;;;;22.95;13.55;;;;;;;21.64;31.88;102344.56;5047745;28;20086;-87
2022/03/21 10:31:43;;;;;;;28.60;14.18;;;;;;;21.46;32.27;102339.28;5055468;28;20108;-89
2022/03/21 10:34:16;;;;;;;22.35;14.30;;;;;;;21.53;32.48;102339.47;5049651;28;20471;-90
2022/03/21 10:37:08;;;;;;;22.48;13.02;;;;;;;21.24;33.38;102337.75;5055183;28;20035;-89
2022/03/21 10:39:41;;;;;;;24.75;13.70;;;;;;;21.55;32.90;102330.81;5055037;28;20474;-88
2022/03/21 10:42:10;;;;;;;26.05;14.18;;;;;;;21.29;33.04;102331.16;5055176;28;20028;-86
2022/03/21 10:44:37;;;;;;;18.02;12.93;;;;;;;21.25;33.58;102344.09;5054313;28;20056;-86
2022/03/21 10:47:06;;;;;;;25.15;14.10;;;;;;;21.29;33.45;102339.50;5054023;28;20104;-78
2022/03/21 10:49:41;;;;;;;24.42;14.52;;;;;;;21.41;33.44;102342.28;5054527;28;20021;-87
2022/03/21 10:52:08;;;;;;;24.17;14.43;;;;;;;21.44;33.12;102338.78;5054655;28;20024;-88
2022/03/21 10:54:48;;;;;;;19.40;12.23;;;;;;;21.65;32.66;102346.19;5053642;28;20043;-82
2022/03/21 10:57:31;;;;;;;24.27;13.40;;;;;;;22.00;32.32;102341.72;5052030;28;20021;-90
2022/03/21 11:00:15;;;;;;;22.02;13.98;;;;;;;22.00;32.09;102346.47;5052155;28;20033;-75
2022/03/21 11:02:50;;;;;;;19.00;13.23;;;;;;;21.92;32.28;102341.88;5052878;28;20479;-77
2022/03/21 11:05:17;;;;;;;16.23;13.20;;;;;;;21.62;32.32;102338.56;5052196;28;20066;-85
2022/03/21 11:07:44;;;;;;;29.27;15.30;;;;;;;21.63;32.08;102345.75;5054315;28;20104;-88
2022/03/21 11:10:10;;;;;;;22.70;14.27;;;;;;;21.73;31.90;102339.69;5037221;28;20025;-88
2022/03/21 11:12:37;;;;;;;21.13;14.27;;;;;;;21.70;32.08;102337.63;5054631;28;20025;-88
2022/03/21 11:15:06;;;;;;;19.40;13.52;;;;;;;21.64;31.84;102345.38;5054097;28;20028;-87
2022/03/21 11:17:32;;;;;;;37.57;16.50;;;;;;;21.69;31.46;102342.38;5054478;28;20021;-87
2022/03/21 11:20:01;;;;;;;27.42;15.43;;;;;;;21.87;31.59;102337.34;5054397;28;20560;-85
2022/03/21 11:22:27;;;;;;;21.88;14.18;;;;;;;21.95;31.38;102341.97;5036400;28;20027;-87
2022/03/21 11:24:53;;;;;;;26.33;14.07;;;;;;;21.75;31.65;102331.78;5054835;28;20025;-83
2022/03/21 11:27:41;;;;;;;27.73;14.43;;;;;;;21.83;31.67;102341.97;5053693;28;20074;-82
2022/03/21 11:30:36;;;;;;;26.92;14.15;;;;;;;21.77;31.75;102333.09;5050916;28;20045;-77